Time;durP1;ratioP1;P1;durP2;ratioP2;P2;SDS_P1;SDS_P2;PMS_P1;PMS_P2;Temp;Humidity;BMP_temperature;BMP_pressure;BME280_temperature;BME280_humidity;BME280_pressure;Samples;Min_cycle;Max_cycle;Signal;HPM_P1;HPM_P2
2022/11/26 00:01:39;;;;;;;59.20;46.20;;;;;;;0.73;100.00;101723.44;5055958;28;20049;-87
2022/11/26 00:04:06;;;;;;;54.25;48.05;;;;;;;0.48;100.00;101713.16;5053790;28;20044;-85
2022/11/26 00:06:36;;;;;;;55.42;46.58;;;;;;;0.17;100.00;101718.91;5049366;28;20057;-84
2022/11/26 00:09:04;;;;;;;58.30;46.72;;;;;;;0.48;100.00;101721.84;5050143;28;20485;-83
2022/11/26 00:11:30;;;;;;;53.63;47.15;;;;;;;0.36;100.00;101722.75;5053880;28;20400;-85
2022/11/26 00:13:57;;;;;;;55.33;47.70;;;;;;;0.44;100.00;101728.25;5052479;28;20075;-87
2022/11/26 00:16:27;;;;;;;51.15;45.38;;;;;;;0.31;100.00;101728.34;5055180;28;20048;-86
2022/11/26 00:18:54;;;;;;;51.80;42.97;;;;;;;0.39;100.00;101726.00;5053218;28;20071;-84
2022/11/26 00:21:23;;;;;;;51.08;42.60;;;;;;;0.56;100.00;101731.72;5054608;28;20060;-85
2022/11/26 00:23:51;;;;;;;48.83;43.63;;;;;;;0.34;100.00;101729.91;5052988;28;20076;-85
2022/11/26 00:26:20;;;;;;;51.63;44.50;;;;;;;0.26;100.00;101716.56;5060762;28;20056;-87
2022/11/26 00:28:51;;;;;;;52.83;47.13;;;;;;;0.22;100.00;101722.03;5055708;28;20118;-86
2022/11/26 00:31:17;;;;;;;49.92;43.15;;;;;;;0.31;100.00;101723.13;5059129;28;20429;-85
2022/11/26 00:33:45;;;;;;;54.10;45.97;;;;;;;0.15;100.00;101725.19;5052666;28;20462;-84
2022/11/26 00:36:20;;;;;;;51.80;46.13;;;;;;;0.06;100.00;101731.09;5055524;28;20045;-87
2022/11/26 00:38:51;;;;;;;55.42;47.85;;;;;;;0.29;100.00;101721.56;5053368;28;20049;-86
2022/11/26 00:41:21;;;;;;;52.50;45.22;;;;;;;0.21;100.00;101729.97;5051006;28;20052;-85
2022/11/26 00:43:49;;;;;;;55.70;49.53;;;;;;;0.34;100.00;101735.97;5056067;28;20072;-84
2022/11/26 00:46:17;;;;;;;57.83;47.63;;;;;;;0.14;100.00;101736.59;5053313;28;20080;-85
2022/11/26 00:48:45;;;;;;;60.60;47.33;;;;;;;0.22;100.00;101735.09;5050471;28;20489;-83
2022/11/26 00:51:15;;;;;;;58.13;48.33;;;;;;;-0.22;100.00;101743.56;5056159;28;20071;-84
2022/11/26 00:53:43;;;;;;;60.42;48.28;;;;;;;-0.07;100.00;101739.00;5053015;28;20469;-83
2022/11/26 00:56:15;;;;;;;64.20;47.28;;;;;;;0.03;100.00;101739.16;5053804;28;20049;-85
2022/11/26 00:58:42;;;;;;;58.30;44.08;;;;;;;-0.28;100.00;101746.59;5052336;28;20045;-85
2022/11/26 01:01:11;;;;;;;55.58;45.83;;;;;;;-0.06;100.00;101744.13;5154254;22;20448;-84
2022/11/26 01:03:41;;;;;;;65.00;46.95;;;;;;;0.00;100.00;101740.22;5006936;28;20046;-87
2022/11/26 01:06:15;;;;;;;53.63;47.35;;;;;;;0.14;100.00;101734.81;5015285;28;20057;-85
2022/11/26 01:08:43;;;;;;;56.72;45.40;;;;;;;0.05;100.00;101737.28;5001300;28;20052;-86
2022/11/26 01:11:14;;;;;;;53.78;43.85;;;;;;;0.42;100.00;101740.59;5005340;28;20084;-85
2022/11/26 01:13:42;;;;;;;54.95;44.78;;;;;;;0.38;100.00;101744.41;5005685;28;20060;-87
2022/11/26 01:16:18;;;;;;;50.55;43.42;;;;;;;0.39;100.00;101741.69;5003023;28;20124;-85
2022/11/26 01:18:46;;;;;;;51.30;44.42;;;;;;;0.15;100.00;101738.25;5008449;28;20069;-85
2022/11/26 01:21:15;;;;;;;58.10;46.40;;;;;;;0.27;100.00;101739.94;5007299;28;20064;-83
2022/11/26 01:23:42;;;;;;;57.50;48.38;;;;;;;0.29;100.00;101753.75;5001252;28;20058;-85
2022/11/26 01:26:15;;;;;;;50.40;43.15;;;;;;;0.40;100.00;101758.19;5007845;28;20041;-84
2022/11/26 01:28:42;;;;;;;54.13;42.20;;;;;;;0.66;100.00;101751.00;5009058;28;20068;-86
2022/11/26 01:31:15;;;;;;;49.90;43.53;;;;;;;0.60;100.00;101735.78;5009914;28;20137;-86
2022/11/26 01:33:42;;;;;;;47.55;41.10;;;;;;;0.62;100.00;101726.03;5001009;28;20437;-85
2022/11/26 01:36:25;;;;;;;50.50;44.90;;;;;;;0.70;100.00;101741.97;5013065;28;20061;-84
2022/11/26 01:38:54;;;;;;;51.88;44.30;;;;;;;0.55;100.00;101732.69;5003261;28;20034;-84
2022/11/26 01:41:33;;;;;;;50.85;45.00;;;;;;;0.51;100.00;101737.28;5000481;28;20045;-85
2022/11/26 01:44:00;;;;;;;50.85;42.88;;;;;;;0.48;100.00;101740.13;5006782;28;20050;-85
2022/11/26 01:46:34;;;;;;;48.78;43.35;;;;;;;0.78;100.00;101751.84;5002152;28;20077;-84
2022/11/26 01:49:16;;;;;;;52.03;44.67;;;;;;;0.74;100.00;101763.50;4998427;28;20046;-83
2022/11/26 01:51:46;;;;;;;53.70;44.08;;;;;;;0.99;100.00;101760.66;5010189;28;20053;-83
2022/11/26 01:54:14;;;;;;;50.90;45.55;;;;;;;1.17;100.00;101765.44;5001066;28;20112;-85
2022/11/26 01:56:45;;;;;;;49.38;44.08;;;;;;;1.17;100.00;101760.19;5001454;28;20100;-84
2022/11/26 01:59:18;;;;;;;51.85;46.38;;;;;;;1.27;100.00;101766.38;4999330;28;20046;-86
2022/11/26 02:01:45;;;;;;;49.30;44.33;;;;;;;1.27;100.00;101759.38;5014219;28;20046;-83
2022/11/26 02:04:16;;;;;;;49.83;44.65;;;;;;;1.28;100.00;101768.06;5003012;28;20050;-84
2022/11/26 02:06:48;;;;;;;122.25;73.07;;;;;;;1.52;100.00;101771.38;5007386;28;20058;-86
2022/11/26 02:09:15;;;;;;;52.85;45.88;;;;;;;1.32;100.00;101765.06;5006286;28;20050;-85
2022/11/26 02:11:42;;;;;;;64.35;50.65;;;;;;;1.50;100.00;101768.03;5000040;28;20119;-84
2022/11/26 02:14:14;;;;;;;51.28;45.70;;;;;;;1.54;100.00;101774.72;5011026;28;20054;-86
2022/11/26 02:17:06;;;;;;;64.78;49.85;;;;;;;1.41;100.00;101762.69;5005285;28;20050;-86
2022/11/26 02:20:14;;;;;;;53.38;47.83;;;;;;;1.55;100.00;101773.75;5016278;28;20124;-84
2022/11/26 02:23:32;;;;;;;47.85;42.95;;;;;;;1.67;100.00;101773.75;4987755;28;20046;-86
2022/11/26 02:26:33;;;;;;;50.05;44.80;;;;;;;1.71;100.00;101778.59;4982162;28;20050;-84
2022/11/26 02:29:17;;;;;;;49.58;44.22;;;;;;;1.84;100.00;101775.81;5005407;28;20116;-85
2022/11/26 02:31:51;;;;;;;52.55;45.38;;;;;;;1.91;100.00;101771.78;5008246;28;20050;-83
2022/11/26 02:34:25;;;;;;;51.42;45.92;;;;;;;1.92;100.00;101776.03;4997670;28;20085;-86
2022/11/26 02:36:57;;;;;;;50.95;45.70;;;;;;;1.80;100.00;101777.84;5000266;28;20042;-86
2022/11/26 02:39:25;;;;;;;51.85;46.53;;;;;;;1.93;100.00;101780.31;5002342;28;20112;-86
2022/11/26 02:41:54;;;;;;;52.45;46.92;;;;;;;1.93;100.00;101777.69;4999736;28;20046;-83
2022/11/26 02:44:25;;;;;;;54.15;48.22;;;;;;;1.92;100.00;101776.03;5004921;28;20061;-85
2022/11/26 02:46:57;;;;;;;74.28;64.95;;;;;;;1.77;100.00;101779.91;5007684;28;20046;-83
2022/11/26 02:49:24;;;;;;;74.70;61.58;;;;;;;1.98;100.00;101788.66;5012077;28;20401;-84
2022/11/26 02:51:55;;;;;;;85.15;68.55;;;;;;;2.11;100.00;101775.38;5003487;28;20057;-84
2022/11/26 02:54:24;;;;;;;63.15;56.55;;;;;;;1.73;100.00;101781.09;5001310;28;20049;-85
2022/11/26 02:56:52;;;;;;;68.32;60.72;;;;;;;1.98;100.00;101783.41;5005390;28;20057;-85
2022/11/26 02:59:20;;;;;;;59.95;52.92;;;;;;;2.05;100.00;101779.31;5003026;28;20051;-85
2022/11/26 03:01:54;;;;;;;61.45;55.08;;;;;;;2.11;100.00;101778.00;5007704;28;20140;-83
2022/11/26 03:04:27;;;;;;;52.97;47.30;;;;;;;1.72;100.00;101782.88;5001672;28;20387;-88
2022/11/26 03:06:58;;;;;;;58.85;50.42;;;;;;;1.91;100.00;101784.88;5004279;28;20065;-84
2022/11/26 03:09:25;;;;;;;55.77;50.10;;;;;;;2.01;100.00;101792.81;4998019;28;20046;-83
2022/11/26 03:11:52;;;;;;;53.38;47.85;;;;;;;1.93;100.00;101788.19;5002218;28;20104;-86
2022/11/26 03:14:18;;;;;;;53.85;48.28;;;;;;;1.97;100.00;101787.00;5003677;28;20054;-83
2022/11/26 03:16:45;;;;;;;52.03;46.33;;;;;;;2.10;100.00;101783.38;5000236;28;20057;-85
2022/11/26 03:19:12;;;;;;;49.80;44.58;;;;;;;2.18;100.00;101788.81;5001156;28;20116;-85
2022/11/26 03:21:40;;;;;;;52.42;47.15;;;;;;;2.08;100.00;101788.72;5011333;28;20116;-83
2022/11/26 03:24:07;;;;;;;56.50;50.55;;;;;;;2.13;100.00;101783.13;4999310;28;20395;-84
2022/11/26 03:26:34;;;;;;;55.75;49.80;;;;;;;2.08;100.00;101787.91;5004498;28;20054;-85
2022/11/26 03:29:01;;;;;;;53.88;48.25;;;;;;;2.18;100.00;101801.91;5002276;28;20042;-85
2022/11/26 03:31:27;;;;;;;52.10;45.63;;;;;;;2.24;100.00;101802.28;5016142;28;20452;-86
2022/11/26 03:33:54;;;;;;;55.22;49.20;;;;;;;2.11;100.00;101806.84;5007628;28;20050;-83
2022/11/26 03:36:22;;;;;;;59.92;53.58;;;;;;;2.11;100.00;101817.31;4997402;28;20113;-84
2022/11/26 03:38:50;;;;;;;56.35;49.05;;;;;;;2.15;100.00;101834.47;5007561;28;20124;-87
2022/11/26 03:41:16;;;;;;;55.88;49.92;;;;;;;2.29;100.00;101847.28;5003995;28;20384;-83
2022/11/26 03:43:43;;;;;;;51.20;45.65;;;;;;;2.00;100.00;101857.50;5004516;28;20516;-85
2022/11/26 03:46:10;;;;;;;54.90;48.88;;;;;;;2.16;100.00;101851.03;5005750;28;20045;-83
2022/11/26 03:48:37;;;;;;;62.75;50.63;;;;;;;2.18;100.00;101857.81;4998663;28;20052;-86
2022/11/26 03:51:04;;;;;;;70.50;59.50;;;;;;;2.22;100.00;101861.84;5006657;28;20478;-86
2022/11/26 03:53:31;;;;;;;61.97;55.42;;;;;;;2.18;100.00;101870.06;5001463;28;20395;-85
2022/11/26 03:55:59;;;;;;;58.42;48.30;;;;;;;2.31;100.00;101869.94;5004269;28;20515;-85
2022/11/26 03:58:25;;;;;;;50.60;45.05;;;;;;;2.31;100.00;101883.88;5009046;28;20042;-84
2022/11/26 04:00:52;;;;;;;59.53;48.58;;;;;;;2.31;100.00;101877.81;5012633;28;20041;-87
2022/11/26 04:03:19;;;;;;;52.92;45.05;;;;;;;2.39;100.00;101878.00;5010181;28;20053;-82
2022/11/26 04:05:46;;;;;;;57.30;51.28;;;;;;;2.41;100.00;101863.00;4998089;28;20058;-86
2022/11/26 04:08:12;;;;;;;50.03;45.03;;;;;;;2.05;100.00;101864.97;5003390;28;20061;-85
2022/11/26 04:10:39;;;;;;;48.72;42.22;;;;;;;2.02;100.00;101867.84;4999843;28;20502;-85
2022/11/26 04:13:07;;;;;;;49.90;44.85;;;;;;;2.20;100.00;101865.56;5008139;28;20043;-84
2022/11/26 04:15:35;;;;;;;55.78;47.65;;;;;;;2.36;100.00;101868.63;5005933;28;20042;-87
2022/11/26 04:18:03;;;;;;;53.72;47.88;;;;;;;2.41;100.00;101869.06;5002161;28;20112;-86
2022/11/26 04:20:30;;;;;;;53.35;45.80;;;;;;;2.23;100.00;101876.63;4998455;28;20046;-86
2022/11/26 04:22:56;;;;;;;62.10;50.03;;;;;;;2.32;100.00;101877.66;5004612;28;20050;-83
2022/11/26 04:25:23;;;;;;;59.90;47.65;;;;;;;2.52;100.00;101891.81;5004372;28;20058;-86
2022/11/26 04:27:50;;;;;;;59.47;47.65;;;;;;;2.44;100.00;101896.84;5000954;28;20117;-85
2022/11/26 04:30:18;;;;;;;58.40;45.25;;;;;;;2.52;100.00;101892.63;5010174;28;20487;-83
2022/11/26 04:32:45;;;;;;;61.67;47.95;;;;;;;2.44;100.00;101895.03;5012437;28;20509;-85
2022/11/26 04:35:12;;;;;;;69.95;51.55;;;;;;;2.49;100.00;101897.31;5002265;28;20053;-83
2022/11/26 04:37:39;;;;;;;68.85;51.75;;;;;;;2.51;100.00;101893.59;5013596;28;20111;-86
2022/11/26 04:40:07;;;;;;;66.15;47.15;;;;;;;2.56;100.00;101913.38;5004469;28;20046;-87
2022/11/26 04:42:33;;;;;;;70.03;49.92;;;;;;;2.61;100.00;101903.34;5011166;28;20042;-86
2022/11/26 04:45:00;;;;;;;69.35;51.10;;;;;;;2.45;100.00;101909.84;5005729;28;20551;-84
2022/11/26 04:47:28;;;;;;;69.93;50.20;;;;;;;2.35;100.00;101905.44;5007015;28;20053;-86
2022/11/26 04:49:55;;;;;;;76.35;52.30;;;;;;;2.37;100.00;101914.84;5004585;28;20057;-86
2022/11/26 04:52:22;;;;;;;72.35;50.28;;;;;;;2.28;100.00;101919.03;5003076;28;20045;-85
2022/11/26 04:54:48;;;;;;;74.75;51.40;;;;;;;2.34;100.00;101924.75;5001529;28;20058;-86
2022/11/26 04:57:15;;;;;;;83.10;55.60;;;;;;;2.60;100.00;101927.88;5005927;28;20084;-85
2022/11/26 04:59:42;;;;;;;76.18;50.15;;;;;;;2.49;100.00;101936.63;5002120;28;20475;-86
2022/11/26 05:02:09;;;;;;;76.43;51.50;;;;;;;2.42;100.00;101932.81;5009835;28;20398;-87
2022/11/26 05:04:37;;;;;;;72.07;51.65;;;;;;;2.46;100.00;101931.66;5009732;28;20077;-84
2022/11/26 05:07:04;;;;;;;74.82;53.45;;;;;;;2.48;100.00;101945.44;5001906;28;20050;-86
2022/11/26 05:09:31;;;;;;;75.07;50.28;;;;;;;2.29;100.00;101948.72;5016281;28;20045;-87
2022/11/26 05:11:58;;;;;;;74.45;50.75;;;;;;;2.39;100.00;101941.78;5006005;28;20189;-85
2022/11/26 05:14:25;;;;;;;76.45;53.38;;;;;;;2.22;100.00;101950.97;5010313;28;20054;-85
2022/11/26 05:16:52;;;;;;;76.18;53.20;;;;;;;2.20;100.00;101955.50;5003980;28;20046;-85
2022/11/26 05:19:18;;;;;;;81.97;50.58;;;;;;;2.17;100.00;101952.31;5009488;28;20112;-84
2022/11/26 05:21:46;;;;;;;87.43;51.65;;;;;;;2.01;100.00;101955.28;5006408;28;20045;-87
2022/11/26 05:24:14;;;;;;;87.78;53.60;;;;;;;2.14;100.00;101957.78;5012797;28;20470;-86
2022/11/26 05:26:41;;;;;;;91.22;51.67;;;;;;;2.09;100.00;101959.91;5009613;28;20046;-85
2022/11/26 05:29:08;;;;;;;96.43;48.72;;;;;;;1.96;100.00;101965.28;5012270;28;20054;-86
2022/11/26 05:31:34;;;;;;;95.50;54.80;;;;;;;2.03;100.00;101966.50;5006574;28;20069;-86
2022/11/26 05:34:02;;;;;;;102.60;54.88;;;;;;;1.91;100.00;101980.56;5005230;28;20046;-87
2022/11/26 05:36:29;;;;;;;100.50;51.70;;;;;;;2.13;100.00;101983.16;5003788;28;20087;-84
2022/11/26 05:38:58;;;;;;;100.97;54.33;;;;;;;2.17;100.00;101986.38;5006585;28;20057;-87
2022/11/26 05:41:25;;;;;;;103.65;53.47;;;;;;;2.13;100.00;101993.66;4998710;28;20151;-84
2022/11/26 05:43:51;;;;;;;112.45;54.55;;;;;;;2.10;100.00;101990.44;5000277;28;20564;-85
2022/11/26 05:46:19;;;;;;;105.80;53.08;;;;;;;2.14;100.00;101997.09;5006897;28;20482;-86
2022/11/26 05:48:45;;;;;;;114.22;54.50;;;;;;;2.01;100.00;102003.28;5007698;28;20382;-87
2022/11/26 05:51:12;;;;;;;103.35;50.53;;;;;;;1.82;100.00;101998.66;4995629;28;20050;-85
2022/11/26 05:53:39;;;;;;;106.38;49.47;;;;;;;1.86;100.00;101996.63;5010351;28;20718;-87
2022/11/26 05:56:08;;;;;;;107.45;55.10;;;;;;;2.00;100.00;102006.06;5010018;28;20053;-85
2022/11/26 05:58:35;;;;;;;115.47;56.10;;;;;;;1.91;100.00;102006.75;5015441;28;20046;-85
2022/11/26 06:01:06;;;;;;;114.88;52.72;;;;;;;1.73;100.00;101999.34;5011597;28;20064;-85
2022/11/26 06:03:32;;;;;;;112.75;49.58;;;;;;;1.65;100.00;102006.94;5008147;28;20463;-84
2022/11/26 06:05:59;;;;;;;111.78;50.10;;;;;;;1.63;100.00;102016.69;5011467;28;20046;-86
2022/11/26 06:08:26;;;;;;;108.82;48.05;;;;;;;1.61;100.00;102023.84;5009364;28;20050;-85
2022/11/26 06:10:53;;;;;;;102.50;48.70;;;;;;;1.86;100.00;102022.81;5010548;28;20115;-86
2022/11/26 06:13:21;;;;;;;95.32;43.35;;;;;;;1.93;100.00;102020.56;5010167;28;20065;-85
2022/11/26 06:15:48;;;;;;;100.72;48.03;;;;;;;1.60;100.00;102022.16;5014145;28;20046;-87
2022/11/26 06:18:16;;;;;;;109.90;48.78;;;;;;;1.81;100.00;102035.44;5010878;28;20113;-86
2022/11/26 06:20:42;;;;;;;90.78;45.85;;;;;;;1.76;100.00;102038.41;5012265;28;20046;-85
2022/11/26 06:23:09;;;;;;;108.88;50.47;;;;;;;1.90;100.00;102032.09;5007769;28;20073;-83
2022/11/26 06:25:36;;;;;;;111.88;46.15;;;;;;;1.68;100.00;102030.28;5000465;28;20081;-84
2022/11/26 06:28:03;;;;;;;105.38;48.55;;;;;;;1.87;100.00;102042.81;5006731;28;20038;-85
2022/11/26 06:30:31;;;;;;;112.32;50.03;;;;;;;1.87;100.00;102042.81;5004626;28;20120;-85
2022/11/26 06:32:58;;;;;;;122.47;49.83;;;;;;;1.68;100.00;102042.56;5011594;28;20077;-84
2022/11/26 06:35:29;;;;;;;93.55;45.97;;;;;;;1.93;100.00;102057.25;5012909;28;20049;-86
2022/11/26 06:37:56;;;;;;;111.28;51.00;;;;;;;1.89;100.00;102053.19;5011216;28;20481;-85
2022/11/26 06:40:22;;;;;;;119.78;47.83;;;;;;;1.58;100.00;102048.47;5000189;28;20042;-85
2022/11/26 06:42:49;;;;;;;124.10;48.60;;;;;;;1.62;100.00;102053.50;5006606;28;20054;-86
2022/11/26 06:45:17;;;;;;;96.20;45.08;;;;;;;1.70;100.00;102064.25;5004263;28;20065;-84
2022/11/26 06:47:45;;;;;;;109.30;48.30;;;;;;;1.96;100.00;102059.63;5005610;28;20109;-83
2022/11/26 06:50:12;;;;;;;141.73;51.45;;;;;;;1.95;100.00;102061.41;4999780;28;20046;-83
2022/11/26 06:52:39;;;;;;;111.45;50.08;;;;;;;1.86;100.00;102056.88;5007672;28;20050;-85
2022/11/26 06:55:06;;;;;;;105.55;49.58;;;;;;;1.83;100.00;102067.59;5011314;28;20462;-83
2022/11/26 06:57:33;;;;;;;98.95;48.60;;;;;;;2.19;100.00;102077.06;5004983;28;20128;-85
2022/11/26 07:00:00;;;;;;;107.93;49.42;;;;;;;1.82;100.00;102082.47;5004646;28;20482;-87
2022/11/26 07:02:27;;;;;;;123.60;56.88;;;;;;;1.74;100.00;102082.22;5009930;28;20057;-88
2022/11/26 07:04:56;;;;;;;105.75;55.13;;;;;;;2.09;100.00;102083.97;5008388;28;20116;-83
2022/11/26 07:07:22;;;;;;;115.80;57.55;;;;;;;1.78;100.00;102094.13;5010152;28;20398;-85
2022/11/26 07:09:49;;;;;;;170.38;87.15;;;;;;;1.91;100.00;102096.69;5011003;28;20046;-85
2022/11/26 07:12:16;;;;;;;105.05;52.42;;;;;;;1.75;100.00;102096.16;5011283;28;20064;-86
2022/11/26 07:14:43;;;;;;;109.90;55.22;;;;;;;1.91;100.00;102090.63;5006578;28;20045;-84
2022/11/26 07:17:10;;;;;;;97.72;53.05;;;;;;;1.80;100.00;102094.84;5011245;28;20478;-83
2022/11/26 07:19:36;;;;;;;99.53;52.35;;;;;;;1.71;100.00;102098.16;5007049;28;20446;-89
2022/11/26 07:22:04;;;;;;;85.70;44.00;;;;;;;1.78;100.00;102096.75;5016440;28;20054;-86
2022/11/26 07:24:31;;;;;;;92.75;46.20;;;;;;;1.67;100.00;102103.75;5004721;28;20053;-83
2022/11/26 07:26:58;;;;;;;87.80;44.47;;;;;;;1.76;100.00;102100.44;5007316;28;20050;-85
2022/11/26 07:29:25;;;;;;;91.47;48.10;;;;;;;1.88;100.00;102101.31;5012208;28;20041;-85
2022/11/26 07:31:51;;;;;;;86.53;45.85;;;;;;;1.95;100.00;102099.91;5016924;28;20045;-84
2022/11/26 07:34:18;;;;;;;89.55;45.33;;;;;;;1.94;100.00;102095.63;5007012;28;20061;-85
2022/11/26 07:36:45;;;;;;;87.47;45.50;;;;;;;1.96;100.00;102097.16;5014162;28;20043;-84
2022/11/26 07:39:13;;;;;;;79.80;42.17;;;;;;;1.78;100.00;102101.16;5005197;28;20109;-83
2022/11/26 07:41:40;;;;;;;90.47;47.22;;;;;;;1.37;100.00;102108.50;5003781;28;20497;-83
2022/11/26 07:44:06;;;;;;;83.85;44.95;;;;;;;1.59;100.00;102106.94;5010995;28;20046;-85
2022/11/26 07:46:33;;;;;;;76.30;41.70;;;;;;;1.56;100.00;102101.91;5010084;28;20054;-85
2022/11/26 07:49:00;;;;;;;82.93;48.38;;;;;;;1.77;100.00;102110.81;5009422;28;20043;-83
2022/11/26 07:51:28;;;;;;;80.10;45.08;;;;;;;2.04;100.00;102114.94;5011115;28;20471;-86
2022/11/26 07:53:56;;;;;;;77.72;45.97;;;;;;;1.66;100.00;102120.41;5008856;28;20042;-85
2022/11/26 07:56:25;;;;;;;81.60;47.30;;;;;;;1.50;100.00;102107.59;5003913;28;20046;-84
2022/11/26 07:58:53;;;;;;;67.75;42.60;;;;;;;1.49;100.00;102119.88;5007029;28;20458;-85
2022/11/26 08:01:21;;;;;;;76.80;43.80;;;;;;;1.70;100.00;102111.38;5008589;28;20100;-83
2022/11/26 08:03:50;;;;;;;74.13;47.35;;;;;;;1.86;100.00;102117.16;5008900;28;20057;-87
2022/11/26 08:06:18;;;;;;;83.57;46.35;;;;;;;1.81;100.00;102109.63;5003418;28;20065;-83
2022/11/26 08:08:46;;;;;;;88.93;48.63;;;;;;;1.95;100.00;102113.84;5005107;28;20057;-84
2022/11/26 08:11:15;;;;;;;91.00;47.90;;;;;;;1.92;100.00;102108.81;5001756;28;20050;-84
2022/11/26 08:13:43;;;;;;;73.63;42.15;;;;;;;1.66;100.00;102121.22;5008552;28;20076;-86
2022/11/26 08:16:11;;;;;;;79.97;46.60;;;;;;;1.80;100.00;102120.22;5009448;28;20049;-86
2022/11/26 08:18:38;;;;;;;82.93;45.70;;;;;;;2.03;100.00;102121.97;5013323;28;20050;-86
2022/11/26 08:21:05;;;;;;;81.43;43.88;;;;;;;1.86;100.00;102121.56;5009178;28;20521;-83
2022/11/26 08:23:33;;;;;;;80.32;44.13;;;;;;;2.09;100.00;102119.81;5011416;28;20108;-83
2022/11/26 08:26:05;;;;;;;70.72;43.20;;;;;;;1.75;100.00;102127.59;5010338;28;20073;-85
2022/11/26 08:28:32;;;;;;;85.10;47.08;;;;;;;2.16;100.00;102119.25;5005632;28;20105;-85
2022/11/26 08:31:03;;;;;;;82.45;46.55;;;;;;;2.33;100.00;102128.44;5005788;28;20049;-83
2022/11/26 08:33:30;;;;;;;78.40;46.53;;;;;;;2.23;100.00;102124.84;5008521;28;20045;-84
2022/11/26 08:35:57;;;;;;;83.70;48.40;;;;;;;2.03;100.00;102121.97;5011809;28;20046;-86
2022/11/26 08:38:24;;;;;;;80.53;47.08;;;;;;;2.27;100.00;102126.31;5008950;28;20483;-87
2022/11/26 08:40:53;;;;;;;89.15;48.00;;;;;;;2.53;100.00;102129.53;5007472;28;20052;-84
2022/11/26 08:43:20;;;;;;;85.55;48.78;;;;;;;2.60;100.00;102140.38;5016129;28;20057;-86
2022/11/26 08:45:53;;;;;;;79.88;46.80;;;;;;;2.61;100.00;102142.88;5016154;28;20080;-85
2022/11/26 08:48:21;;;;;;;81.03;45.50;;;;;;;2.36;100.00;102143.94;5004592;28;20042;-84
2022/11/26 08:50:48;;;;;;;85.68;47.13;;;;;;;2.71;100.00;102146.44;5007619;28;20128;-86
2022/11/26 08:53:15;;;;;;;79.20;44.25;;;;;;;2.59;100.00;102157.91;5004406;28;20064;-83
2022/11/26 08:55:42;;;;;;;90.88;50.88;;;;;;;2.95;100.00;102154.19;5009560;28;20111;-86
2022/11/26 08:58:09;;;;;;;86.75;47.17;;;;;;;2.95;100.00;102150.75;5014244;28;20050;-83
2022/11/26 09:00:36;;;;;;;81.28;45.55;;;;;;;2.93;100.00;102156.09;5009460;28;20042;-83
2022/11/26 09:03:03;;;;;;;81.57;49.60;;;;;;;2.78;100.00;102148.59;5004164;28;20509;-86
2022/11/26 09:05:31;;;;;;;75.80;49.05;;;;;;;2.64;100.00;102155.75;5008556;28;20053;-86
2022/11/26 09:07:58;;;;;;;85.68;50.78;;;;;;;2.98;100.00;102156.56;5008549;28;20074;-84
2022/11/26 09:10:25;;;;;;;80.90;49.88;;;;;;;3.05;100.00;102164.78;5004274;28;20042;-85
2022/11/26 09:12:52;;;;;;;96.93;63.00;;;;;;;3.08;100.00;102151.44;5003513;28;20117;-85
2022/11/26 09:15:19;;;;;;;74.85;46.28;;;;;;;2.94;100.00;102149.09;5007484;28;20045;-84
2022/11/26 09:17:45;;;;;;;78.90;47.42;;;;;;;2.96;100.00;102144.53;5002967;28;20050;-83
2022/11/26 09:20:12;;;;;;;70.88;45.20;;;;;;;2.35;100.00;102141.44;5005518;28;20046;-86
2022/11/26 09:22:40;;;;;;;79.85;49.70;;;;;;;3.28;100.00;102141.97;5018534;28;20061;-87
2022/11/26 09:25:10;;;;;;;80.45;54.92;;;;;;;3.33;100.00;102152.94;5012480;28;20467;-87
2022/11/26 09:27:36;;;;;;;83.32;58.20;;;;;;;3.24;100.00;102143.19;5005080;28;20058;-85
2022/11/26 09:30:04;;;;;;;85.50;63.00;;;;;;;3.38;100.00;102145.50;5008991;28;20046;-85
2022/11/26 09:32:33;;;;;;;80.45;52.42;;;;;;;3.31;100.00;102138.28;5011298;28;20058;-86
2022/11/26 09:35:00;;;;;;;86.75;58.58;;;;;;;3.41;100.00;102147.88;5003153;28;20042;-86
2022/11/26 09:37:26;;;;;;;78.10;52.63;;;;;;;3.58;100.00;102140.44;5006014;28;20042;-84
2022/11/26 09:39:54;;;;;;;76.90;53.50;;;;;;;3.52;100.00;102143.56;5004533;28;20058;-84
2022/11/26 09:42:32;;;;;;;83.63;54.33;;;;;;;3.56;100.00;102140.56;5006566;28;20054;-85
2022/11/26 09:45:09;;;;;;;74.07;51.40;;;;;;;3.75;100.00;102146.94;4999991;28;20046;-85
2022/11/26 09:47:40;;;;;;;66.40;49.42;;;;;;;3.54;100.00;102147.75;5002578;28;20061;-84
2022/11/26 09:50:20;;;;;;;70.18;50.25;;;;;;;3.12;100.00;102149.41;5015018;28;20049;-87
2022/11/26 09:52:53;;;;;;;71.43;49.15;;;;;;;3.68;100.00;102157.13;5005927;28;20438;-86
2022/11/26 09:55:24;;;;;;;69.65;49.50;;;;;;;3.84;100.00;102156.69;5000504;28;20041;-85
2022/11/26 09:57:59;;;;;;;74.93;48.27;;;;;;;3.87;100.00;102153.81;5004589;28;20395;-87
2022/11/26 10:00:28;;;;;;;72.32;51.10;;;;;;;3.91;100.00;102168.38;5004348;28;20042;-85
2022/11/26 10:02:57;;;;;;;92.75;59.95;;;;;;;3.91;100.00;102157.88;5012779;28;20505;-86
2022/11/26 10:05:37;;;;;;;79.30;50.83;;;;;;;4.02;100.00;102157.78;5006348;28;20050;-87
2022/11/26 10:08:14;;;;;;;73.35;50.28;;;;;;;3.74;100.00;102156.63;5002239;28;20050;-83
2022/11/26 10:10:52;;;;;;;70.93;47.83;;;;;;;3.54;100.00;102144.25;5012336;28;20386;-85
2022/11/26 10:13:25;;;;;;;67.60;47.38;;;;;;;3.65;100.00;102145.06;5006317;28;20080;-85
2022/11/26 10:16:16;;;;;;;73.57;48.58;;;;;;;3.82;100.00;102140.22;5010862;28;20054;-85
2022/11/26 10:18:55;;;;;;;85.93;51.70;;;;;;;3.46;100.00;102149.34;5011980;28;20058;-87
2022/11/26 10:21:25;;;;;;;75.40;48.47;;;;;;;3.63;100.00;102148.78;4994472;28;20045;-84
2022/11/26 10:23:57;;;;;;;78.10;50.88;;;;;;;3.99;100.00;102144.91;4998987;28;20541;-85
2022/11/26 10:26:29;;;;;;;75.13;51.33;;;;;;;4.07;100.00;102149.53;5006485;28;20128;-84
2022/11/26 10:29:14;;;;;;;75.90;56.00;;;;;;;4.51;100.00;102139.69;5009908;28;20111;-83
2022/11/26 10:31:44;;;;;;;68.25;51.17;;;;;;;4.51;100.00;102130.00;5003909;28;20050;-86
2022/11/26 10:34:14;;;;;;;66.45;47.83;;;;;;;4.12;100.00;102123.69;5003665;28;20084;-85
2022/11/26 10:36:44;;;;;;;70.30;54.83;;;;;;;4.88;100.00;102123.34;5000095;28;20456;-84
2022/11/26 10:39:14;;;;;;;67.05;51.65;;;;;;;4.40;100.00;102118.72;5003653;28;20050;-85
2022/11/26 10:41:43;;;;;;;63.10;50.88;;;;;;;4.13;100.00;102110.41;5005807;28;20410;-84
2022/11/26 10:44:34;;;;;;;57.60;49.30;;;;;;;5.61;100.00;102116.78;5006518;28;20073;-88
2022/11/26 10:47:20;;;;;;;65.13;50.72;;;;;;;6.48;100.00;102114.97;5004837;28;20466;-84
2022/11/26 10:49:48;;;;;;;58.92;52.00;;;;;;;6.87;100.00;102110.34;5003114;28;20092;-85
2022/11/26 10:52:17;;;;;;;58.80;50.97;;;;;;;5.24;100.00;102119.25;5002886;28;20069;-85
2022/11/26 10:54:44;;;;;;;58.25;50.70;;;;;;;6.04;100.00;102107.59;5003368;28;20422;-83
2022/11/26 10:57:17;;;;;;;59.33;50.58;;;;;;;5.47;100.00;102114.53;5004239;28;20052;-85
2022/11/26 10:59:46;;;;;;;;;;;;;;;6.09;100.00;102120.38;5003602;28;20089;-84
2022/11/26 11:02:28;;;;;;;52.72;47.00;;;;;;;5.70;100.00;102109.84;5007214;28;19992;-85
2022/11/26 11:04:57;;;;;;;59.10;50.00;;;;;;;6.12;100.00;102106.91;5008131;28;20471;-86
2022/11/26 11:07:41;;;;;;;61.88;52.25;;;;;;;5.36;100.00;102123.44;5006765;28;20073;-84
2022/11/26 11:10:15;;;;;;;59.38;49.90;;;;;;;6.15;100.00;102120.63;5009318;28;20154;-85
2022/11/26 11:12:50;;;;;;;54.83;48.58;;;;;;;4.96;100.00;102111.16;5010066;28;20101;-84
2022/11/26 11:15:24;;;;;;;66.57;53.92;;;;;;;5.84;100.00;102112.06;5009996;28;20077;-87
2022/11/26 11:17:59;;;;;;;56.67;50.67;;;;;;;7.79;100.00;102117.19;4293178;28;10000896;-87
2022/11/26 11:20:32;;;;;;;56.17;49.88;;;;;;;6.79;100.00;102111.06;4983334;28;20073;-84